Time;durP1;ratioP1;P1;durP2;ratioP2;P2;SDS_P1;SDS_P2;PMS_P1;PMS_P2;Temp;Humidity;BMP_temperature;BMP_pressure;BME280_temperature;BME280_humidity;BME280_pressure;Samples;Min_cycle;Max_cycle;Signal;HPM_P1;HPM_P2
2022/03/08 00:01:28;;;;;;;7.75;2.50;;;;;;;1.78;53.12;101048.78;5057602;28;20376;-80
2022/03/08 00:03:54;;;;;;;5.85;2.03;;;;;;;1.92;52.94;101039.63;5060127;28;20035;-80
2022/03/08 00:06:19;;;;;;;5.00;1.92;;;;;;;1.99;52.46;101041.59;5059778;28;20460;-81
2022/03/08 00:08:45;;;;;;;6.65;2.70;;;;;;;1.87;53.42;101041.81;5059240;28;20032;-82
2022/03/08 00:11:10;;;;;;;6.10;2.27;;;;;;;1.88;52.89;101041.69;5058528;28;20033;-80
2022/03/08 00:13:36;;;;;;;6.72;2.70;;;;;;;1.90;52.57;101047.72;5059408;28;20476;-81
2022/03/08 00:16:01;;;;;;;4.65;2.33;;;;;;;2.07;52.25;101048.91;5059219;28;20048;-81
2022/03/08 00:18:26;;;;;;;5.93;1.83;;;;;;;1.93;53.00;101046.63;5059260;28;20032;-83
2022/03/08 00:20:52;;;;;;;5.50;2.40;;;;;;;1.82;53.14;101044.03;5059593;28;20108;-81
2022/03/08 00:23:17;;;;;;;7.68;2.67;;;;;;;1.93;52.45;101047.47;5059529;28;20087;-80
2022/03/08 00:25:43;;;;;;;7.43;2.50;;;;;;;1.84;53.01;101047.41;5064979;28;20033;-83
2022/03/08 00:28:08;;;;;;;7.80;2.10;;;;;;;1.75;53.21;101046.41;5068149;28;20287;-81
2022/03/08 00:30:34;;;;;;;4.50;1.90;;;;;;;1.68;53.49;101048.72;5067533;28;20476;-81
2022/03/08 00:32:59;;;;;;;10.35;2.38;;;;;;;1.57;54.06;101040.00;5065177;28;20032;-82
2022/03/08 00:35:25;;;;;;;5.43;2.20;;;;;;;1.78;53.33;101032.84;5064432;28;20047;-83
2022/03/08 00:37:52;;;;;;;7.32;2.22;;;;;;;1.88;53.27;101038.19;5064578;28;20036;-84
2022/03/08 00:40:20;;;;;;;4.82;2.15;;;;;;;1.72;53.79;101033.38;5063082;28;20092;-80
2022/03/08 00:42:45;;;;;;;4.47;1.80;;;;;;;1.66;53.97;101036.56;5057128;28;20029;-82
2022/03/08 00:45:12;;;;;;;6.25;2.20;;;;;;;1.51;54.63;101036.06;5057206;28;20028;-82
2022/03/08 00:47:39;;;;;;;5.88;1.85;;;;;;;1.64;54.08;101034.03;5059012;28;20064;-81
2022/03/08 00:50:07;;;;;;;5.32;2.05;;;;;;;1.55;55.18;101026.88;5060381;28;20044;-81
2022/03/08 00:52:33;;;;;;;6.30;2.28;;;;;;;1.57;54.60;101021.44;5062603;28;20025;-80
2022/03/08 00:54:59;;;;;;;;;;;;;;;1.54;54.59;101025.19;5062557;28;20036;-80
2022/03/08 00:57:24;;;;;;;6.30;2.10;;;;;;;1.48;54.54;101023.03;5063053;28;19912;-82
2022/03/08 00:59:49;;;;;;;6.10;1.92;;;;;;;1.48;54.96;101015.06;5061430;28;20040;-80
2022/03/08 01:02:15;;;;;;;4.90;1.97;;;;;;;1.43;54.87;101013.81;5063171;28;20081;-81
2022/03/08 01:04:40;;;;;;;5.03;2.03;;;;;;;1.58;54.53;101004.50;5060780;28;20709;-82
2022/03/08 01:07:07;;;;;;;4.07;1.77;;;;;;;1.58;54.34;101004.50;5056811;28;20025;-81
2022/03/08 01:09:33;;;;;;;4.55;2.05;;;;;;;1.43;54.74;101003.19;5058748;28;20311;-80
2022/03/08 01:11:59;;;;;;;7.65;2.55;;;;;;;1.59;54.59;100996.41;5058292;28;20021;-81
2022/03/08 01:14:24;;;;;;;5.70;2.05;;;;;;;1.50;54.93;100996.34;5057788;28;20110;-79
2022/03/08 01:16:50;;;;;;;5.40;2.17;;;;;;;1.51;54.71;100985.59;5058497;28;20478;-81
2022/03/08 01:19:15;;;;;;;7.20;2.15;;;;;;;1.31;55.14;101002.41;5057705;28;20079;-80
2022/03/08 01:21:41;;;;;;;5.35;2.20;;;;;;;1.38;54.93;101004.41;5058822;28;20112;-79
2022/03/08 01:24:06;;;;;;;5.63;2.10;;;;;;;1.40;55.12;101001.63;5058098;28;20033;-79
2022/03/08 01:26:32;;;;;;;6.72;1.85;;;;;;;1.28;55.44;100997.34;5057529;28;20027;-79
2022/03/08 01:28:59;;;;;;;6.63;2.05;;;;;;;1.47;54.67;100992.16;5058696;28;20420;-79
2022/03/08 01:31:25;;;;;;;5.03;1.90;;;;;;;1.44;54.90;100994.22;5056487;28;20036;-81
2022/03/08 01:33:50;;;;;;;5.05;2.00;;;;;;;1.35;54.66;100991.41;5056301;28;20029;-79
2022/03/08 01:36:16;;;;;;;6.77;2.37;;;;;;;1.46;54.83;100985.16;5057749;28;20029;-81
2022/03/08 01:38:42;;;;;;;5.00;2.17;;;;;;;1.60;54.05;100982.16;5057712;28;20645;-79
2022/03/08 01:41:08;;;;;;;5.57;2.20;;;;;;;1.36;55.12;100981.63;5057383;28;20239;-79
2022/03/08 01:43:34;;;;;;;5.50;2.05;;;;;;;1.30;54.96;100990.09;5057540;28;20526;-79
2022/03/08 01:45:59;;;;;;;4.78;2.10;;;;;;;1.19;55.66;100987.53;5058446;28;20056;-79
2022/03/08 01:48:24;;;;;;;5.85;2.35;;;;;;;1.26;55.54;100989.50;5057160;28;20025;-79
2022/03/08 01:50:50;;;;;;;5.13;1.67;;;;;;;1.22;55.71;100982.81;5057413;28;20460;-79
2022/03/08 01:53:16;;;;;;;7.07;2.38;;;;;;;1.17;55.93;100979.69;5058226;28;20037;-80
2022/03/08 01:55:41;;;;;;;6.28;2.55;;;;;;;1.25;55.81;100968.44;5057581;28;20037;-80
2022/03/08 01:58:07;;;;;;;4.43;2.13;;;;;;;1.17;55.98;100966.44;5057351;28;20033;-79
2022/03/08 02:00:32;;;;;;;6.10;2.23;;;;;;;1.17;55.95;100962.94;5057013;28;20032;-79
2022/03/08 02:02:58;;;;;;;5.72;2.00;;;;;;;1.06;56.69;100960.38;5057312;28;20043;-79
2022/03/08 02:05:26;;;;;;;6.57;2.05;;;;;;;0.95;56.61;100954.13;5056188;28;20420;-79
2022/03/08 02:07:52;;;;;;;7.78;2.15;;;;;;;0.95;57.11;100951.50;5057348;28;20033;-79
2022/03/08 02:10:18;;;;;;;5.28;2.05;;;;;;;0.91;57.35;100947.41;5056233;28;20079;-80
2022/03/08 02:12:43;;;;;;;7.22;2.75;;;;;;;0.96;56.67;100937.25;5058023;28;20040;-80
2022/03/08 02:15:12;;;;;;;6.17;2.50;;;;;;;1.04;56.34;100941.91;5057791;28;20039;-80
2022/03/08 02:17:37;;;;;;;6.68;2.03;;;;;;;0.88;57.09;100937.06;5055656;28;20075;-79
2022/03/08 02:20:02;;;;;;;6.23;2.63;;;;;;;0.91;57.32;100942.09;5057021;28;20037;-79
2022/03/08 02:22:28;;;;;;;5.45;2.47;;;;;;;0.83;57.84;100946.38;5056577;28;20032;-81
2022/03/08 02:24:53;;;;;;;6.77;2.30;;;;;;;0.87;57.55;100942.50;5057252;28;20535;-79
2022/03/08 02:27:19;;;;;;;6.80;2.43;;;;;;;0.85;57.65;100941.78;5056763;28;20041;-79
2022/03/08 02:29:45;;;;;;;;;;;;;;;0.82;57.74;100950.00;5056929;28;20033;-79
2022/03/08 02:32:10;;;;;;;9.85;3.33;;;;;;;0.83;57.57;100943.72;5056938;28;20025;-79
2022/03/08 02:34:36;;;;;;;5.32;2.83;;;;;;;0.99;57.44;100944.13;5056375;28;20031;-79
2022/03/08 02:37:12;;;;;;;5.77;2.13;;;;;;;0.79;57.82;100942.31;5056686;28;20033;-79
2022/03/08 02:39:39;;;;;;;6.55;2.20;;;;;;;0.92;57.40;100946.44;5055151;28;20518;-82
2022/03/08 02:42:05;;;;;;;6.30;2.30;;;;;;;0.90;57.26;100940.41;5056045;28;20124;-81
2022/03/08 02:44:30;;;;;;;8.45;2.72;;;;;;;0.86;57.88;100941.66;5056416;28;20037;-79
2022/03/08 02:46:56;;;;;;;6.40;2.70;;;;;;;0.82;58.03;100939.41;5056625;28;20052;-79
2022/03/08 02:49:22;;;;;;;6.32;2.65;;;;;;;0.61;58.65;100944.69;5058010;28;20032;-79
2022/03/08 02:51:47;;;;;;;8.60;3.10;;;;;;;0.42;59.59;100940.06;5058573;28;20135;-80
2022/03/08 02:54:13;;;;;;;8.48;2.83;;;;;;;0.49;59.07;100940.41;5058516;28;20029;-79
2022/03/08 02:56:39;;;;;;;5.03;2.13;;;;;;;0.47;59.52;100942.34;5058032;28;20025;-80
2022/03/08 02:59:04;;;;;;;6.15;2.17;;;;;;;0.49;59.49;100945.72;5057759;28;20033;-80
2022/03/08 03:01:30;;;;;;;5.77;2.63;;;;;;;0.39;59.56;100939.47;5057219;28;20396;-81
2022/03/08 03:03:55;;;;;;;14.20;2.42;;;;;;;0.61;58.81;100942.03;5056252;28;20749;-79
2022/03/08 03:06:20;;;;;;;7.70;2.75;;;;;;;0.57;59.01;100935.31;5055830;28;20047;-78
2022/03/08 03:08:46;;;;;;;5.93;2.17;;;;;;;0.43;59.28;100939.09;5058012;28;20153;-79
2022/03/08 03:11:11;;;;;;;6.40;2.80;;;;;;;0.38;59.57;100943.09;5064954;28;20100;-79
2022/03/08 03:13:36;;;;;;;10.30;3.13;;;;;;;0.42;59.72;100937.44;5064731;28;20029;-78
2022/03/08 03:16:02;;;;;;;4.03;2.03;;;;;;;0.48;59.24;100933.44;5063897;28;20044;-79
2022/03/08 03:18:27;;;;;;;6.32;2.67;;;;;;;0.43;59.13;100925.00;5064810;28;20283;-79
2022/03/08 03:20:53;;;;;;;6.00;2.43;;;;;;;0.67;58.62;100922.97;5060530;28;20122;-79
2022/03/08 03:23:18;;;;;;;6.80;2.63;;;;;;;0.53;58.96;100920.63;5056943;28;20614;-79
2022/03/08 03:25:43;;;;;;;6.97;2.33;;;;;;;0.44;59.54;100924.03;5057942;28;20033;-79
2022/03/08 03:28:09;;;;;;;8.07;2.77;;;;;;;0.50;58.99;100918.25;5057816;28;20283;-81
2022/03/08 03:30:35;;;;;;;7.83;3.10;;;;;;;0.71;58.11;100912.94;5056939;28;20029;-82
2022/03/08 03:33:02;;;;;;;10.00;2.70;;;;;;;0.53;58.71;100902.09;5055821;28;20026;-83
2022/03/08 03:35:28;;;;;;;5.45;2.00;;;;;;;0.51;58.55;100904.00;5057380;28;20032;-81
2022/03/08 03:37:53;;;;;;;6.38;2.60;;;;;;;0.50;59.22;100902.34;5057730;28;20041;-80
2022/03/08 03:40:18;;;;;;;6.13;2.53;;;;;;;0.48;59.16;100910.41;5057991;28;20211;-80
2022/03/08 03:42:44;;;;;;;5.82;2.47;;;;;;;0.37;59.20;100909.59;5057461;28;20025;-79
2022/03/08 03:45:10;;;;;;;8.18;2.85;;;;;;;0.61;58.34;100908.41;5055800;28;20058;-80
2022/03/08 03:47:36;;;;;;;7.03;2.63;;;;;;;0.51;58.88;100901.38;5057451;28;20068;-79
2022/03/08 03:50:02;;;;;;;6.35;2.50;;;;;;;0.50;59.15;100908.47;5055367;28;20052;-82
2022/03/08 03:52:27;;;;;;;6.43;3.05;;;;;;;0.53;58.86;100896.78;5057011;28;20029;-81
2022/03/08 03:54:52;;;;;;;5.93;2.50;;;;;;;0.54;59.06;100893.13;5058332;28;20036;-80
2022/03/08 03:57:18;;;;;;;3.93;1.90;;;;;;;0.47;58.62;100898.13;5058595;28;20029;-80
2022/03/08 03:59:43;;;;;;;7.40;2.90;;;;;;;0.45;58.86;100907.16;5056832;28;20029;-79
2022/03/08 04:02:09;;;;;;;6.83;2.83;;;;;;;0.48;59.18;100904.28;5058850;28;20040;-80
2022/03/08 04:04:34;;;;;;;7.45;3.25;;;;;;;0.39;59.18;100897.06;5056098;28;20033;-79
2022/03/08 04:06:59;;;;;;;7.65;2.60;;;;;;;0.41;58.72;100892.47;5055756;28;20037;-81
2022/03/08 04:09:25;;;;;;;5.40;2.65;;;;;;;0.43;58.73;100896.69;5055594;28;20068;-80
2022/03/08 04:11:50;;;;;;;10.00;2.80;;;;;;;0.55;58.62;100892.16;5055629;28;20029;-82
2022/03/08 04:14:16;;;;;;;7.67;2.63;;;;;;;0.58;58.41;100894.56;5061482;28;20247;-79
2022/03/08 04:16:41;;;;;;;4.78;2.25;;;;;;;0.53;58.80;100894.13;5061962;28;20037;-79
2022/03/08 04:19:07;;;;;;;6.60;2.83;;;;;;;0.53;58.57;100887.00;5061459;28;20073;-79
2022/03/08 04:21:32;;;;;;;5.53;2.55;;;;;;;0.58;58.18;100883.94;5060500;28;20036;-79
2022/03/08 04:23:59;;;;;;;5.03;2.30;;;;;;;0.60;58.50;100895.28;5057977;28;20040;-79
2022/03/08 04:26:24;;;;;;;10.07;3.00;;;;;;;0.53;58.73;100894.97;5058495;28;20531;-79
2022/03/08 04:28:50;;;;;;;5.30;2.33;;;;;;;0.64;58.04;100899.34;5055255;28;20088;-80
2022/03/08 04:31:15;;;;;;;6.60;2.23;;;;;;;0.54;58.38;100891.31;5056806;28;20348;-81
2022/03/08 04:33:41;;;;;;;6.83;2.60;;;;;;;0.61;57.95;100886.34;5054042;28;20060;-79
2022/03/08 04:36:06;;;;;;;5.67;2.43;;;;;;;0.58;58.42;100881.31;5055066;28;20761;-79
2022/03/08 04:38:31;;;;;;;7.17;2.67;;;;;;;0.51;58.15;100890.75;5055085;28;20374;-79
2022/03/08 04:40:57;;;;;;;6.47;2.60;;;;;;;0.67;57.76;100888.50;5055204;28;20346;-80
2022/03/08 04:43:22;;;;;;;6.70;2.77;;;;;;;0.42;58.86;100886.22;5054031;28;20310;-79
2022/03/08 04:45:47;;;;;;;6.73;2.90;;;;;;;0.39;59.01;100892.59;5055233;28;20083;-79
2022/03/08 04:48:13;;;;;;;6.20;2.58;;;;;;;0.41;58.92;100879.22;5056563;28;20058;-81
2022/03/08 04:50:39;;;;;;;6.35;2.75;;;;;;;0.41;59.11;100889.84;5058165;28;20029;-80
2022/03/08 04:53:05;;;;;;;6.70;2.33;;;;;;;0.43;59.00;100891.38;5058079;28;20029;-80
2022/03/08 04:55:30;;;;;;;5.22;2.55;;;;;;;0.43;59.11;100890.53;5057168;28;20521;-79
2022/03/08 04:57:56;;;;;;;6.17;2.87;;;;;;;0.56;58.85;100883.25;5058894;28;20021;-79
2022/03/08 05:00:21;;;;;;;6.10;2.60;;;;;;;0.32;59.37;100881.69;5060189;28;20299;-79
2022/03/08 05:02:46;;;;;;;7.00;2.77;;;;;;;0.31;59.28;100880.00;5064615;28;20025;-80
2022/03/08 05:05:14;;;;;;;7.63;2.67;;;;;;;0.18;60.28;100881.97;5064473;28;20302;-79
2022/03/08 05:07:40;;;;;;;5.85;2.47;;;;;;;0.21;60.28;100887.03;5059708;28;20342;-79
2022/03/08 05:10:08;;;;;;;5.75;2.22;;;;;;;0.13;60.51;100886.84;5058734;28;20402;-78
2022/03/08 05:12:35;;;;;;;5.25;2.40;;;;;;;0.19;60.72;100891.59;5059185;28;20528;-78
2022/03/08 05:15:01;;;;;;;6.80;2.78;;;;;;;0.13;60.92;100897.44;5058026;28;20112;-78
2022/03/08 05:17:26;;;;;;;6.18;2.80;;;;;;;0.34;60.42;100889.53;5056130;28;20102;-77
2022/03/08 05:19:52;;;;;;;6.03;2.83;;;;;;;0.19;60.47;100886.31;5056943;28;20117;-77
2022/03/08 05:22:17;;;;;;;6.38;2.75;;;;;;;0.32;60.26;100889.66;5056968;28;20414;-78
2022/03/08 05:24:43;;;;;;;7.15;2.30;;;;;;;0.40;59.54;100885.50;5057222;28;20037;-78
2022/03/08 05:27:08;;;;;;;4.37;2.37;;;;;;;0.25;59.94;100891.13;5057772;28;20033;-78
2022/03/08 05:29:34;;;;;;;8.50;2.83;;;;;;;0.17;60.71;100882.13;5055224;28;20078;-78
2022/03/08 05:32:00;;;;;;;7.10;3.30;;;;;;;0.23;60.28;100882.44;5057032;28;20084;-77
2022/03/08 05:34:26;;;;;;;6.38;2.67;;;;;;;0.19;60.69;100888.13;5056212;28;20124;-77
2022/03/08 05:36:51;;;;;;;11.15;3.03;;;;;;;0.22;60.47;100880.75;5057034;28;20036;-77
2022/03/08 05:39:17;;;;;;;5.80;2.60;;;;;;;0.21;61.05;100878.22;5054686;28;20533;-78
2022/03/08 05:41:43;;;;;;;7.57;2.83;;;;;;;0.17;60.43;100874.19;5056612;28;20027;-77
2022/03/08 05:44:08;;;;;;;5.53;2.50;;;;;;;-0.12;61.92;100879.22;5056783;28;20036;-77
2022/03/08 05:46:34;;;;;;;8.13;2.93;;;;;;;0.00;61.79;100884.34;5056988;28;20267;-77
2022/03/08 05:48:59;;;;;;;8.85;3.05;;;;;;;-0.09;61.65;100886.91;5055948;28;20025;-80
2022/03/08 05:51:24;;;;;;;8.07;3.47;;;;;;;-0.14;62.07;100897.03;5057753;28;20059;-78
2022/03/08 05:53:50;;;;;;;6.90;2.70;;;;;;;-0.16;62.41;100888.34;5056666;28;20029;-77
2022/03/08 05:56:16;;;;;;;5.90;2.63;;;;;;;-0.23;62.53;100892.50;5056548;28;20025;-79
2022/03/08 05:58:41;;;;;;;7.13;3.15;;;;;;;-0.23;62.67;100901.28;5056436;28;20036;-78
2022/03/08 06:01:07;;;;;;;7.72;3.63;;;;;;;-0.22;62.57;100892.38;5056475;28;20029;-79
2022/03/08 06:03:32;;;;;;;8.03;2.60;;;;;;;-0.27;62.58;100891.06;5057009;28;20033;-79
2022/03/08 06:05:57;;;;;;;6.33;2.93;;;;;;;-0.18;61.71;100887.66;5059725;28;20350;-83
2022/03/08 06:08:23;;;;;;;6.18;3.10;;;;;;;-0.24;61.94;100883.69;5059292;28;20032;-79
2022/03/08 06:10:48;;;;;;;8.35;3.50;;;;;;;-0.37;62.70;100896.25;5055942;28;20057;-78
2022/03/08 06:13:14;;;;;;;6.47;2.53;;;;;;;-0.31;62.97;100897.56;5057369;28;20383;-79
2022/03/08 06:15:39;;;;;;;13.97;4.17;;;;;;;-0.25;62.58;100900.56;5057867;28;20279;-80
2022/03/08 06:18:04;;;;;;;6.70;3.07;;;;;;;-0.28;62.62;100899.97;5058324;28;20037;-80
2022/03/08 06:20:30;;;;;;;9.75;2.92;;;;;;;-0.32;63.01;100893.22;5058515;28;20107;-79
2022/03/08 06:22:55;;;;;;;8.93;2.27;;;;;;;-0.13;62.38;100896.91;5062163;28;20049;-80
2022/03/08 06:25:21;;;;;;;6.93;2.55;;;;;;;-0.24;62.84;100904.88;5063281;28;20025;-79
2022/03/08 06:27:46;;;;;;;;;;;;;;;-0.22;62.92;100910.91;5062198;28;20045;-79
2022/03/08 06:30:12;;;;;;;7.68;2.80;;;;;;;-0.22;62.98;100920.66;5057707;28;19951;-79
2022/03/08 06:32:37;;;;;;;5.53;2.85;;;;;;;-0.11;62.78;100916.16;5057874;28;20037;-80
2022/03/08 06:35:03;;;;;;;8.48;3.00;;;;;;;-0.03;62.58;100916.41;5057767;28;20471;-80
2022/03/08 06:37:29;;;;;;;10.50;3.85;;;;;;;-0.06;62.46;100911.34;5057976;28;20048;-80
2022/03/08 06:39:54;;;;;;;7.22;3.78;;;;;;;-0.01;62.51;100913.63;5057823;28;20103;-85
2022/03/08 06:42:20;;;;;;;8.80;2.83;;;;;;;-0.18;63.04;100907.03;5057993;28;20399;-80
2022/03/08 06:44:45;;;;;;;6.68;2.33;;;;;;;-0.28;63.69;100913.19;5058891;28;20117;-79
2022/03/08 06:47:11;;;;;;;8.88;2.95;;;;;;;-0.37;64.16;100913.00;5059298;28;20493;-79
2022/03/08 06:49:38;;;;;;;6.00;2.75;;;;;;;-0.18;63.49;100909.66;5058637;28;20052;-80
2022/03/08 06:52:05;;;;;;;7.32;2.80;;;;;;;-0.09;63.32;100924.00;5056921;28;20049;-80
2022/03/08 06:54:30;;;;;;;9.70;3.45;;;;;;;-0.01;63.15;100929.53;5056975;28;20028;-80
2022/03/08 06:56:56;;;;;;;6.27;3.03;;;;;;;0.11;62.61;100931.16;5057971;28;20036;-79
2022/03/08 06:59:21;;;;;;;7.77;3.43;;;;;;;0.19;62.75;100923.41;5058737;28;20263;-81
2022/03/08 07:01:47;;;;;;;6.22;3.13;;;;;;;0.22;61.85;100939.06;5065143;28;20473;-87
2022/03/08 07:04:12;;;;;;;8.70;3.28;;;;;;;0.25;61.74;100936.16;5063981;28;20391;-80
2022/03/08 07:06:37;;;;;;;5.10;2.28;;;;;;;0.29;61.88;100934.09;5061396;28;20468;-80
2022/03/08 07:09:03;;;;;;;6.40;2.50;;;;;;;0.32;61.57;100931.22;5056339;28;20113;-80
2022/03/08 07:11:28;;;;;;;9.93;3.13;;;;;;;0.39;61.67;100924.41;5054683;28;20024;-80
2022/03/08 07:13:54;;;;;;;8.87;3.03;;;;;;;0.54;60.73;100923.13;5056231;28;20544;-80
2022/03/08 07:16:19;;;;;;;6.10;2.67;;;;;;;0.60;61.08;100927.09;5056591;28;20251;-81
2022/03/08 07:18:45;;;;;;;8.38;3.33;;;;;;;0.68;60.66;100929.97;5056366;28;20116;-80
2022/03/08 07:21:10;;;;;;;8.23;3.47;;;;;;;0.75;60.23;100925.81;5056285;28;20140;-80
2022/03/08 07:23:35;;;;;;;7.30;2.93;;;;;;;0.82;59.91;100924.31;5058442;28;20093;-80
2022/03/08 07:26:01;;;;;;;10.57;3.53;;;;;;;0.96;59.56;100923.97;5057276;28;20602;-81
2022/03/08 07:28:26;;;;;;;7.47;2.60;;;;;;;0.91;60.28;100928.84;5058295;28;20044;-80
2022/03/08 07:30:53;;;;;;;8.30;3.42;;;;;;;0.95;59.57;100921.47;5058277;28;20060;-80
2022/03/08 07:33:18;;;;;;;6.17;2.77;;;;;;;1.10;59.77;100932.56;5057697;28;20039;-80
2022/03/08 07:35:44;;;;;;;7.10;2.80;;;;;;;1.14;59.03;100931.34;5057828;28;20305;-84
2022/03/08 07:38:09;;;;;;;7.10;3.00;;;;;;;1.18;58.46;100928.28;5057086;28;20040;-80
2022/03/08 07:40:35;;;;;;;8.13;3.58;;;;;;;1.35;58.42;100919.72;5057082;28;20029;-80
2022/03/08 07:43:02;;;;;;;9.05;3.13;;;;;;;1.37;58.05;100919.59;5058358;28;20056;-79
2022/03/08 07:45:28;;;;;;;7.72;3.25;;;;;;;1.52;57.39;100920.91;5058060;28;20036;-80
2022/03/08 07:47:53;;;;;;;6.70;2.90;;;;;;;1.57;56.85;100923.16;5059034;28;20025;-81
2022/03/08 07:50:19;;;;;;;6.97;2.80;;;;;;;1.54;57.06;100912.78;5056936;28;20039;-82
2022/03/08 07:52:44;;;;;;;7.43;2.88;;;;;;;1.87;56.19;100923.09;5056627;28;20317;-82
2022/03/08 07:55:09;;;;;;;8.13;2.63;;;;;;;1.94;56.48;100920.72;5057167;28;20047;-82
2022/03/08 07:57:35;;;;;;;9.18;3.53;;;;;;;2.03;56.51;100918.06;5057222;28;20530;-80
2022/03/08 08:00:04;;;;;;;7.50;3.17;;;;;;;1.96;56.34;100921.44;5057026;28;20033;-79
2022/03/08 08:02:30;;;;;;;6.75;2.85;;;;;;;2.19;55.88;100914.03;5055654;28;20483;-80
2022/03/08 08:04:56;;;;;;;8.13;2.80;;;;;;;2.14;55.51;100922.44;5055756;28;20033;-79
2022/03/08 08:07:21;;;;;;;;;;;;;;;2.19;54.77;100925.50;5056843;28;20032;-80
2022/03/08 08:09:47;;;;;;;7.63;3.10;;;;;;;2.38;54.58;100914.88;5055336;28;19912;-80
2022/03/08 08:12:12;;;;;;;9.80;3.05;;;;;;;2.53;53.74;100930.41;5056015;28;20025;-80
2022/03/08 08:14:37;;;;;;;8.27;3.05;;;;;;;2.59;53.97;100922.72;5054824;28;20073;-80
2022/03/08 08:17:03;;;;;;;8.97;3.23;;;;;;;2.90;53.09;100925.19;5057320;28;20036;-82
2022/03/08 08:19:28;;;;;;;9.27;3.17;;;;;;;3.11;52.28;100928.50;5055951;28;20271;-80
2022/03/08 08:21:54;;;;;;;8.20;2.93;;;;;;;3.19;52.05;100928.63;5056919;28;20029;-80
2022/03/08 08:24:19;;;;;;;8.10;3.40;;;;;;;3.41;51.61;100933.59;5058848;28;20060;-80
2022/03/08 08:26:44;;;;;;;6.73;2.60;;;;;;;3.51;51.19;100922.06;5058355;28;20036;-78
2022/03/08 08:29:10;;;;;;;6.63;2.93;;;;;;;3.56;50.78;100933.13;5060089;28;20306;-79
2022/03/08 08:31:35;;;;;;;8.85;3.25;;;;;;;3.75;50.22;100917.88;5057428;28;20041;-78
2022/03/08 08:34:01;;;;;;;8.30;3.05;;;;;;;4.00;49.65;100918.97;5058342;28;20032;-83
2022/03/08 08:36:26;;;;;;;7.77;3.00;;;;;;;4.12;49.71;100919.63;5061295;28;20467;-80
2022/03/08 08:38:52;;;;;;;5.97;2.25;;;;;;;4.21;49.67;100910.69;5060936;28;20031;-80
2022/03/08 08:41:18;;;;;;;7.30;3.53;;;;;;;4.25;49.52;100908.56;5061860;28;20029;-79
2022/03/08 08:43:43;;;;;;;6.37;2.90;;;;;;;4.38;49.25;100909.84;5063069;28;20110;-79
2022/03/08 08:46:09;;;;;;;7.80;3.13;;;;;;;4.66;48.04;100905.25;5062658;28;20260;-80
2022/03/08 08:48:35;;;;;;;7.03;2.40;;;;;;;4.76;46.79;100903.34;5059337;28;20055;-79
2022/03/08 08:51:00;;;;;;;6.55;2.85;;;;;;;4.94;46.90;100903.28;5061478;28;20029;-77
2022/03/08 08:53:26;;;;;;;4.78;2.10;;;;;;;5.15;45.34;100914.44;5059625;28;20033;-79
2022/03/08 08:55:52;;;;;;;5.05;2.05;;;;;;;5.23;44.29;100909.13;5060018;28;20033;-79
2022/03/08 08:58:17;;;;;;;5.35;2.20;;;;;;;5.40;43.63;100895.84;5041787;28;20045;-80
2022/03/08 09:00:43;;;;;;;5.33;2.47;;;;;;;5.57;43.69;100893.09;5059262;28;20040;-78
2022/03/08 09:03:12;;;;;;;5.17;2.30;;;;;;;5.68;42.34;100904.53;5058008;28;20021;-78
2022/03/08 09:05:37;;;;;;;6.55;2.00;;;;;;;5.59;41.11;100906.31;5059069;28;20028;-80
2022/03/08 09:08:03;;;;;;;4.47;1.97;;;;;;;5.76;40.77;100896.50;5059985;28;20037;-79
2022/03/08 09:10:29;;;;;;;5.43;2.40;;;;;;;5.96;40.20;100899.78;5059398;28;20104;-78
2022/03/08 09:12:54;;;;;;;6.22;2.60;;;;;;;5.85;41.21;100899.06;5058262;28;20460;-79
2022/03/08 09:15:21;;;;;;;4.77;2.30;;;;;;;6.21;40.06;100898.84;5057986;28;20029;-79
2022/03/08 09:17:47;;;;;;;5.30;2.40;;;;;;;6.28;38.86;100889.97;5058035;28;20309;-82
2022/03/08 09:20:13;;;;;;;;;;;;;;;6.26;39.05;100891.16;5057476;28;20057;-79
2022/03/08 09:22:39;;;;;;;6.00;2.42;;;;;;;6.37;38.40;100888.16;5058100;28;20409;-80
2022/03/08 09:25:06;;;;;;;5.45;2.00;;;;;;;6.10;38.66;100880.41;5058624;28;20035;-80
2022/03/08 09:27:34;;;;;;;5.55;1.85;;;;;;;6.27;38.02;100874.91;5056651;28;20095;-81
2022/03/08 09:30:00;;;;;;;4.45;2.00;;;;;;;6.28;37.53;100876.59;5056818;28;20119;-79
2022/03/08 09:32:25;;;;;;;5.57;2.15;;;;;;;6.20;37.87;100876.59;5056963;28;20135;-79
2022/03/08 09:34:51;;;;;;;4.63;1.93;;;;;;;6.20;38.06;100871.25;5056664;28;20039;-79
2022/03/08 09:37:16;;;;;;;4.83;1.80;;;;;;;6.38;37.96;100872.94;5058188;28;20486;-78
2022/03/08 09:39:41;;;;;;;4.80;2.00;;;;;;;6.51;37.78;100866.06;5057076;28;20428;-79
2022/03/08 09:42:07;;;;;;;4.83;2.07;;;;;;;6.59;37.40;100857.22;5057680;28;20056;-79
2022/03/08 09:44:33;;;;;;;3.75;1.80;;;;;;;6.89;37.08;100845.78;5056998;28;20036;-85
2022/03/08 09:46:58;;;;;;;5.87;2.03;;;;;;;6.63;37.65;100863.88;5057382;28;20116;-78
2022/03/08 09:49:25;;;;;;;6.07;1.83;;;;;;;6.70;36.69;100866.72;5057964;28;20108;-79
2022/03/08 09:51:53;;;;;;;6.63;2.30;;;;;;;6.61;36.79;100866.75;5056925;28;20123;-80
2022/03/08 09:54:19;;;;;;;15.30;2.10;;;;;;;6.57;36.43;100862.72;5057662;28;20049;-79
2022/03/08 09:56:44;;;;;;;5.53;2.00;;;;;;;6.63;36.17;100852.34;5058885;28;20033;-79
2022/03/08 09:59:09;;;;;;;5.47;2.20;;;;;;;6.76;36.73;100853.50;5058978;28;20041;-80
2022/03/08 10:01:35;;;;;;;5.78;2.00;;;;;;;6.89;35.62;100858.31;5057036;28;20065;-78
2022/03/08 10:04:01;;;;;;;6.07;1.90;;;;;;;6.77;36.05;100848.97;5059598;28;20047;-81
2022/03/08 10:06:39;;;;;;;5.72;2.00;;;;;;;6.65;36.16;100861.88;5058339;28;20290;-80
2022/03/08 10:09:16;;;;;;;6.78;2.20;;;;;;;7.00;35.30;100852.59;5056856;28;20025;-81
2022/03/08 10:11:42;;;;;;;5.72;2.40;;;;;;;6.97;35.19;100840.41;5056144;28;20029;-80
2022/03/08 10:14:13;;;;;;;5.68;2.10;;;;;;;7.02;35.38;100839.88;5056367;28;20460;-80
2022/03/08 10:16:43;;;;;;;4.07;2.00;;;;;;;7.01;34.70;100856.13;5056480;28;20064;-79
2022/03/08 10:19:10;;;;;;;5.85;1.92;;;;;;;7.06;34.44;100838.53;5055926;28;20476;-81
2022/03/08 10:21:45;;;;;;;5.35;2.08;;;;;;;7.10;34.47;100855.94;5057372;28;20039;-82
2022/03/08 10:24:22;;;;;;;3.58;1.58;;;;;;;7.05;34.88;100833.34;5056431;28;20033;-80
2022/03/08 10:26:51;;;;;;;5.93;2.55;;;;;;;7.15;34.46;100826.78;5056301;28;20051;-79
2022/03/08 10:29:28;;;;;;;4.78;1.70;;;;;;;7.36;34.46;100830.72;5057924;28;20041;-80
2022/03/08 10:32:06;;;;;;;5.65;2.10;;;;;;;7.36;34.11;100828.88;5057028;28;20111;-81
2022/03/08 10:34:33;;;;;;;4.72;2.10;;;;;;;7.33;34.38;100813.16;5057118;28;20032;-79
2022/03/08 10:37:07;;;;;;;4.22;1.52;;;;;;;7.34;34.82;100824.72;5060479;28;20033;-82
2022/03/08 10:39:33;;;;;;;5.20;1.92;;;;;;;7.19;34.31;100837.97;5058411;28;20033;-81
2022/03/08 10:41:59;;;;;;;4.70;1.75;;;;;;;7.26;35.05;100813.00;5057173;28;20029;-79
2022/03/08 10:44:39;;;;;;;4.38;2.00;;;;;;;7.39;34.54;100806.22;5056867;28;20059;-80
2022/03/08 10:47:07;;;;;;;3.67;1.60;;;;;;;7.51;34.57;100792.28;5057181;28;20087;-81
2022/03/08 10:49:34;;;;;;;5.70;2.10;;;;;;;7.68;35.06;100798.38;5058215;28;20025;-80
2022/03/08 10:52:04;;;;;;;4.65;1.85;;;;;;;7.48;34.70;100789.13;5058661;28;20056;-80
2022/03/08 10:54:30;;;;;;;7.22;2.70;;;;;;;7.63;34.59;100779.31;5059480;28;20033;-78
2022/03/08 10:56:56;;;;;;;;;;;;;;;7.77;34.47;100772.34;5057935;28;20123;-80
2022/03/08 10:59:22;;;;;;;3.55;1.80;;;;;;;8.02;33.95;100777.34;5058232;28;19910;-80
2022/03/08 11:01:48;;;;;;;5.93;1.90;;;;;;;8.03;34.10;100775.50;5057102;28;20059;-79
2022/03/08 11:04:18;;;;;;;4.97;1.90;;;;;;;8.27;33.80;100777.13;5056783;28;20035;-80
2022/03/08 11:06:46;;;;;;;4.97;2.13;;;;;;;8.21;33.27;100778.72;5058544;28;20064;-79
2022/03/08 11:09:12;;;;;;;6.25;1.83;;;;;;;8.22;33.78;100779.56;5057605;28;20108;-79
2022/03/08 11:11:37;;;;;;;4.35;1.83;;;;;;;8.39;33.63;100780.28;5059440;28;20053;-78
2022/03/08 11:14:03;;;;;;;5.78;1.90;;;;;;;8.66;33.33;100764.38;5060585;28;20048;-81
2022/03/08 11:16:30;;;;;;;4.68;1.80;;;;;;;8.49;33.15;100767.41;5060743;28;20040;-79
2022/03/08 11:18:56;;;;;;;5.53;2.00;;;;;;;8.59;33.12;100762.63;5057789;28;20098;-78
2022/03/08 11:21:24;;;;;;;7.90;2.00;;;;;;;8.70;33.19;100754.94;5058458;28;20041;-80
2022/03/08 11:23:52;;;;;;;4.45;1.77;;;;;;;8.66;32.64;100763.53;5058642;28;20119;-79
2022/03/08 11:26:18;;;;;;;5.45;2.20;;;;;;;8.61;32.45;100772.13;5057488;28;20028;-80
2022/03/08 11:28:45;;;;;;;7.18;2.20;;;;;;;8.58;32.12;100759.09;5056393;28;20110;-81